Time;durP1;ratioP1;P1;durP2;ratioP2;P2;SDS_P1;SDS_P2;PMS_P1;PMS_P2;Temp;Humidity;BMP_temperature;BMP_pressure;BME280_temperature;BME280_humidity;BME280_pressure;Samples;Min_cycle;Max_cycle;Signal;HPM_P1;HPM_P2
2022/01/18 00:00:51;;;;;;;5.40;1.80;;;;;;;;;;4937665;29;20242;-77
2022/01/18 00:03:17;;;;;;;4.40;1.87;;;;;;;;;;4954185;28;20193;-77
2022/01/18 00:05:45;;;;;;;6.83;2.10;;;;;;;;;;4937101;29;20177;-77
2022/01/18 00:08:12;;;;;;;6.10;1.97;;;;;;;;;;4937290;29;20185;-77
2022/01/18 00:10:38;;;;;;;5.10;1.87;;;;;;;;;;4937286;29;20273;-77
2022/01/18 00:16:08;;;;;;;7.00;2.50;;;;;;;;;;4954134;29;20325;-77
2022/01/18 00:18:30;;;;;;;10.97;6.40;;;;;;;;;;4941086;29;20182;-77
2022/01/18 00:21:16;;;;;;;7.33;3.40;;;;;;;;;;4937226;29;20173;-77
2022/01/18 00:23:42;;;;;;;7.30;2.93;;;;;;;;;;4926448;29;20200;-77
2022/01/18 00:26:09;;;;;;;16.53;6.10;;;;;;;;;;4940513;29;20272;-77
2022/01/18 00:28:37;;;;;;;11.83;5.90;;;;;;;;;;4940553;29;20177;-77
2022/01/18 00:36:54;;;;;;;6.43;3.30;;;;;;;;;;4941422;29;20300;-77
2022/01/18 00:39:20;;;;;;;10.20;5.50;;;;;;;;;;4940687;29;20597;-77
2022/01/18 00:41:46;;;;;;;11.70;5.97;;;;;;;;;;4940313;29;20202;-77
2022/01/18 00:44:12;;;;;;;11.63;5.17;;;;;;;;;;4923155;29;20182;-77
2022/01/18 00:46:40;;;;;;;11.47;4.50;;;;;;;;;;4905776;29;20196;-77
2022/01/18 00:49:06;;;;;;;12.53;7.67;;;;;;;;;;4921191;29;20183;-77
2022/01/18 00:51:36;;;;;;;12.90;7.53;;;;;;;;;;4938158;29;20177;-77
2022/01/18 00:54:03;;;;;;;8.90;2.90;;;;;;;;;;4905949;29;20270;-77
2022/01/18 00:56:31;;;;;;;7.03;3.67;;;;;;;;;;4905264;29;20234;-77
2022/01/18 00:58:57;;;;;;;10.73;4.43;;;;;;;;;;4905952;29;20212;-77
2022/01/18 01:01:25;;;;;;;8.17;3.03;;;;;;;;;;4920973;29;20613;-77
2022/01/18 01:03:54;;;;;;;13.10;5.60;;;;;;;;;;4921328;29;20177;-78
2022/01/18 01:06:20;;;;;;;10.30;4.80;;;;;;;;;;4921247;29;20183;-78
2022/01/18 01:08:46;;;;;;;14.57;6.43;;;;;;;;;;4905316;29;20246;-78
2022/01/18 01:11:12;;;;;;;9.93;3.17;;;;;;;;;;4905308;29;20194;-78
2022/01/18 01:13:42;;;;;;;5.60;2.10;;;;;;;;;;4905216;29;20205;-78
2022/01/18 01:45:02;;;;;;;5.07;1.70;;;;;;;;;;4920364;29;20181;-77
2022/01/18 01:47:38;;;;;;;9.30;1.83;;;;;;;;;;4904843;29;20276;-77
2022/01/18 01:50:05;;;;;;;5.77;2.13;;;;;;;;;;4905914;29;20268;-77
2022/01/18 01:52:31;;;;;;;6.47;2.10;;;;;;;;;;4904602;29;20221;-77
2022/01/18 01:54:57;;;;;;;8.97;2.10;;;;;;;;;;4904590;29;20733;-77
2022/01/18 01:57:24;;;;;;;8.47;1.80;;;;;;;;;;4904553;29;20224;-77
2022/01/18 01:59:50;;;;;;;5.70;2.07;;;;;;;;;;4904397;29;20197;-77
2022/01/18 02:02:16;;;;;;;6.77;2.60;;;;;;;;;;4904324;29;20202;-77
2022/01/18 02:04:42;;;;;;;6.93;2.10;;;;;;;;;;4904611;29;20194;-77
2022/01/18 02:07:08;;;;;;;6.17;2.03;;;;;;;;;;4904623;29;20276;-77
2022/01/18 02:09:34;;;;;;;8.03;2.40;;;;;;;;;;4936814;29;20178;-77
2022/01/18 02:12:01;;;;;;;7.13;2.20;;;;;;;;;;4904450;29;20206;-77
2022/01/18 02:14:30;;;;;;;6.40;2.23;;;;;;;;;;4919629;29;20660;-77
2022/01/18 02:22:25;;;;;;;7.03;2.03;;;;;;;;;;4922466;29;20752;-77
2022/01/18 02:24:51;;;;;;;5.87;2.63;;;;;;;;;;4936423;29;20177;-77
2022/01/18 02:27:17;;;;;;;9.23;2.63;;;;;;;;;;4919220;29;20188;-77
2022/01/18 02:29:43;;;;;;;9.57;1.90;;;;;;;;;;4903861;29;20636;-77
2022/01/18 02:32:10;;;;;;;5.67;1.90;;;;;;;;;;4903893;29;20212;-77
2022/01/18 02:34:36;;;;;;;4.60;1.70;;;;;;;;;;4919145;29;20185;-77
2022/01/18 02:37:04;;;;;;;4.77;1.90;;;;;;;;;;4936257;29;20238;-77
2022/01/18 02:39:30;;;;;;;5.87;2.30;;;;;;;;;;4936286;29;20174;-77
2022/01/18 02:41:58;;;;;;;6.83;1.90;;;;;;;;;;4919057;29;20205;-77
2022/01/18 02:44:24;;;;;;;6.27;2.10;;;;;;;;;;4919501;29;20188;-77
2022/01/18 02:46:51;;;;;;;4.47;1.73;;;;;;;;;;4918588;29;20194;-77
2022/01/18 02:49:17;;;;;;;6.60;2.10;;;;;;;;;;4919179;29;20552;-77
2022/01/18 02:51:43;;;;;;;5.10;2.20;;;;;;;;;;4911179;29;20217;-77
2022/01/18 02:54:10;;;;;;;7.57;2.80;;;;;;;;;;4921201;29;20257;-77
2022/01/18 02:56:45;;;;;;;6.07;1.80;;;;;;;;;;4902971;29;20249;-77
2022/01/18 02:59:19;;;;;;;9.67;2.20;;;;;;;;;;4918867;29;20177;-77
2022/01/18 03:04:32;;;;;;;8.70;2.03;;;;;;;;;;4935968;29;20192;-77
2022/01/18 03:06:59;;;;;;;5.67;1.97;;;;;;;;;;4918638;29;20272;-77
2022/01/18 03:09:25;;;;;;;5.87;2.13;;;;;;;;;;4920909;29;20695;-77
2022/01/18 03:11:51;;;;;;;7.73;2.27;;;;;;;;;;4902921;29;20213;-77
2022/01/18 03:14:17;;;;;;;7.20;2.40;;;;;;;;;;4935619;29;20236;-77
2022/01/18 03:16:43;;;;;;;9.00;2.20;;;;;;;;;;4902980;29;20205;-77
2022/01/18 03:19:09;;;;;;;7.57;2.60;;;;;;;;;;4918587;29;20264;-77
2022/01/18 03:21:35;;;;;;;9.07;2.40;;;;;;;;;;4918507;29;20209;-77
2022/01/18 03:24:32;;;;;;;8.27;2.17;;;;;;;;;;4918577;29;20237;-78
2022/01/18 03:29:34;;;;;;;6.13;2.30;;;;;;;;;;4921272;29;20228;-77
2022/01/18 03:32:00;;;;;;;4.57;1.67;;;;;;;;;;4902997;29;20264;-77
2022/01/18 03:34:26;;;;;;;5.60;1.90;;;;;;;;;;4918283;29;20233;-77
2022/01/18 03:36:53;;;;;;;9.20;2.00;;;;;;;;;;4918312;29;20217;-77
2022/01/18 03:39:19;;;;;;;7.10;2.10;;;;;;;;;;4920338;29;20591;-77
2022/01/18 03:41:52;;;;;;;5.33;1.70;;;;;;;;;;4929376;29;20204;-77
2022/01/18 03:44:19;;;;;;;6.97;2.40;;;;;;;;;;4937143;29;20189;-77
2022/01/18 03:46:45;;;;;;;4.50;1.60;;;;;;;;;;4921315;29;20231;-77
2022/01/18 03:49:11;;;;;;;6.40;1.90;;;;;;;;;;4937411;29;20184;-77
2022/01/18 03:51:38;;;;;;;7.30;2.37;;;;;;;;;;4903188;29;20240;-77
2022/01/18 03:54:04;;;;;;;6.13;2.03;;;;;;;;;;4902573;29;20561;-77
2022/01/18 03:56:30;;;;;;;7.17;2.37;;;;;;;;;;4902343;29;20235;-77
2022/01/18 03:58:56;;;;;;;7.03;2.00;;;;;;;;;;4921448;29;20178;-77
2022/01/18 04:01:22;;;;;;;9.17;2.10;;;;;;;;;;4906039;29;20664;-77
2022/01/18 04:03:48;;;;;;;9.33;2.20;;;;;;;;;;4921861;29;20180;-77
2022/01/18 04:06:14;;;;;;;10.37;2.60;;;;;;;;;;4906136;29;20268;-77
2022/01/18 04:08:40;;;;;;;9.27;2.37;;;;;;;;;;4921758;29;20236;-77
2022/01/18 04:11:06;;;;;;;6.60;1.83;;;;;;;;;;4921574;29;20648;-77
2022/01/18 04:13:32;;;;;;;6.07;2.20;;;;;;;;;;4921233;29;20197;-77
2022/01/18 04:15:58;;;;;;;4.93;1.93;;;;;;;;;;4905826;29;20212;-77
2022/01/18 04:18:46;;;;;;;5.63;2.20;;;;;;;;;;4905800;29;20192;-77
2022/01/18 04:27:01;;;;;;;7.53;2.10;;;;;;;;;;4921328;29;20216;-77
2022/01/18 04:29:27;;;;;;;8.83;2.33;;;;;;;;;;4924996;29;20174;-77
2022/01/18 04:31:53;;;;;;;4.97;2.30;;;;;;;;;;4916625;29;20239;-77
2022/01/18 04:34:19;;;;;;;7.20;2.17;;;;;;;;;;4957400;29;20216;-77
2022/01/18 04:36:48;;;;;;;7.87;2.33;;;;;;;;;;4924397;29;20299;-77
2022/01/18 04:39:14;;;;;;;8.53;2.70;;;;;;;;;;4940539;29;20185;-77
2022/01/18 04:41:45;;;;;;;5.20;2.03;;;;;;;;;;4924385;28;20664;-77
2022/01/18 04:49:40;;;;;;;5.87;1.90;;;;;;;;;;4942961;29;20200;-77
2022/01/18 04:52:06;;;;;;;6.10;1.73;;;;;;;;;;4924043;29;20220;-77
2022/01/18 04:54:32;;;;;;;3.47;1.50;;;;;;;;;;4923851;29;20189;-77
2022/01/18 04:59:24;;;;;;;6.07;2.17;;;;;;;;;;4956919;29;20205;-77
2022/01/18 05:01:51;;;;;;;7.03;2.20;;;;;;;;;;4924180;29;20206;-77
2022/01/18 05:04:17;;;;;;;5.37;1.90;;;;;;;;;;4939742;29;20648;-77
2022/01/18 05:06:44;;;;;;;6.83;2.07;;;;;;;;;;4939609;29;20181;-77
2022/01/18 05:09:11;;;;;;;5.47;1.80;;;;;;;;;;4938977;29;20724;-77
2022/01/18 05:12:34;;;;;;;5.40;1.67;;;;;;;;;;4923976;28;20549;-77
2022/01/18 05:14:33;;;;;;;5.13;1.53;;;;;;;;;;4949380;29;20192;-77
2022/01/18 05:24:32;;;;;;;3.73;1.67;;;;;;;;;;4956574;29;20177;-77
2022/01/18 05:26:59;;;;;;;6.33;1.90;;;;;;;;;;4939485;29;20191;-77
2022/01/18 05:29:25;;;;;;;7.47;1.90;;;;;;;;;;4939127;29;20218;-77
2022/01/18 05:31:51;;;;;;;5.77;2.20;;;;;;;;;;4923640;29;20204;-77
2022/01/18 05:34:17;;;;;;;4.27;1.80;;;;;;;;;;4939271;29;20566;-77
2022/01/18 05:36:44;;;;;;;5.87;1.47;;;;;;;;;;4939416;29;20248;-77
2022/01/18 05:39:10;;;;;;;4.90;1.90;;;;;;;;;;4939163;29;20643;-77
2022/01/18 05:41:37;;;;;;;4.23;1.70;;;;;;;;;;4923641;28;20188;-77
2022/01/18 05:44:04;;;;;;;5.30;1.70;;;;;;;;;;4923137;29;20185;-77
2022/01/18 05:46:30;;;;;;;7.03;2.17;;;;;;;;;;4923417;29;20191;-77
2022/01/18 05:48:56;;;;;;;4.37;1.80;;;;;;;;;;4939150;29;20188;-77
2022/01/18 05:51:22;;;;;;;5.53;2.27;;;;;;;;;;4914612;29;20181;-77
2022/01/18 05:53:48;;;;;;;5.17;2.03;;;;;;;;;;4956518;23;20225;-76
2022/01/18 05:56:14;;;;;;;4.57;2.40;;;;;;;;;;4923143;29;20215;-76
2022/01/18 05:58:45;;;;;;;4.07;1.73;;;;;;;;;;4922666;29;20268;-77
2022/01/18 06:01:13;;;;;;;9.50;2.10;;;;;;;;;;4922959;29;20177;-76
2022/01/18 06:03:54;;;;;;;6.17;2.07;;;;;;;;;;4919531;29;20205;-76
2022/01/18 06:09:05;;;;;;;7.00;1.77;;;;;;;;;;4922195;29;20309;-78
2022/01/18 06:11:31;;;;;;;3.20;1.73;;;;;;;;;;4935079;29;20271;-79
2022/01/18 06:13:58;;;;;;;4.50;1.80;;;;;;;;;;4934637;29;20249;-79
2022/01/18 06:16:24;;;;;;;5.83;1.60;;;;;;;;;;4919120;29;20252;-80
2022/01/18 06:18:50;;;;;;;2.87;1.60;;;;;;;;;;4919307;29;20561;-79
2022/01/18 06:21:16;;;;;;;2.73;1.60;;;;;;;;;;4919093;29;20185;-79
2022/01/18 06:23:42;;;;;;;3.30;1.60;;;;;;;;;;4934356;29;20217;-79
2022/01/18 06:26:12;;;;;;;4.63;1.70;;;;;;;;;;4919033;29;20209;-79
2022/01/18 06:28:38;;;;;;;5.70;1.93;;;;;;;;;;4919711;29;20688;-80
2022/01/18 06:31:04;;;;;;;5.30;1.87;;;;;;;;;;4918847;29;20189;-79
2022/01/18 06:33:30;;;;;;;5.47;2.10;;;;;;;;;;4918899;29;20218;-79
2022/01/18 06:35:56;;;;;;;5.13;2.30;;;;;;;;;;4918717;29;20228;-79
2022/01/18 06:38:22;;;;;;;6.47;2.10;;;;;;;;;;4918703;29;20247;-77
2022/01/18 06:40:49;;;;;;;6.93;2.00;;;;;;;;;;4914056;29;20185;-79
2022/01/18 06:43:15;;;;;;;3.83;1.90;;;;;;;;;;4908756;29;20203;-79
2022/01/18 06:45:42;;;;;;;6.10;2.00;;;;;;;;;;4915321;29;20237;-78
2022/01/18 06:48:08;;;;;;;4.77;1.83;;;;;;;;;;4915462;29;20189;-77
2022/01/18 06:50:34;;;;;;;6.93;1.70;;;;;;;;;;4899660;29;20720;-78
2022/01/18 06:53:00;;;;;;;4.57;1.80;;;;;;;;;;4899153;29;20742;-78
2022/01/18 06:55:26;;;;;;;4.70;1.60;;;;;;;;;;4899353;29;20182;-77
2022/01/18 06:57:53;;;;;;;4.70;1.60;;;;;;;;;;4899503;29;20209;-77
2022/01/18 07:00:19;;;;;;;3.37;1.70;;;;;;;;;;4899255;29;20185;-77
2022/01/18 07:02:45;;;;;;;4.27;1.30;;;;;;;;;;4899531;29;20202;-79
2022/01/18 07:05:11;;;;;;;2.93;1.30;;;;;;;;;;4884407;29;20186;-80
2022/01/18 07:07:38;;;;;;;2.60;1.20;;;;;;;;;;4899873;29;20208;-80
2022/01/18 07:10:04;;;;;;;4.10;1.60;;;;;;;;;;4885452;29;20272;-82
2022/01/18 07:12:34;;;;;;;4.30;1.60;;;;;;;;;;4884407;29;20204;-79
2022/01/18 07:15:00;;;;;;;3.63;1.30;;;;;;;;;;4884319;29;20197;-80
2022/01/18 07:17:26;;;;;;;3.50;1.30;;;;;;;;;;4884080;29;20223;-78
2022/01/18 07:19:52;;;;;;;3.23;1.37;;;;;;;;;;4884782;29;20190;-79
2022/01/18 07:22:18;;;;;;;3.43;1.40;;;;;;;;;;4884064;29;20292;-80
2022/01/18 07:24:45;;;;;;;3.73;1.23;;;;;;;;;;4899015;29;20196;-80
2022/01/18 07:27:12;;;;;;;4.13;1.60;;;;;;;;;;4890744;29;20183;-79
2022/01/18 07:29:41;;;;;;;3.50;1.63;;;;;;;;;;4914957;29;20197;-79
2022/01/18 07:32:07;;;;;;;3.23;1.37;;;;;;;;;;4911593;29;20681;-79
2022/01/18 07:34:35;;;;;;;3.03;1.37;;;;;;;;;;4934994;29;20185;-79
2022/01/18 07:37:02;;;;;;;4.07;1.50;;;;;;;;;;4936132;29;20252;-77
2022/01/18 07:39:28;;;;;;;3.47;1.40;;;;;;;;;;4918326;29;20186;-78
2022/01/18 07:41:54;;;;;;;2.40;1.50;;;;;;;;;;4933549;29;20181;-79
2022/01/18 07:44:20;;;;;;;3.43;1.30;;;;;;;;;;4933892;29;20592;-79
2022/01/18 07:46:46;;;;;;;3.50;1.60;;;;;;;;;;4936996;29;20178;-79
2022/01/18 07:49:12;;;;;;;4.03;1.70;;;;;;;;;;4935017;29;20182;-76
2022/01/18 07:51:38;;;;;;;4.03;1.57;;;;;;;;;;4933835;29;20184;-84
2022/01/18 07:54:04;;;;;;;3.10;1.63;;;;;;;;;;4917798;29;20608;-79
2022/01/18 07:56:30;;;;;;;3.70;1.90;;;;;;;;;;4934081;29;20209;-79
2022/01/18 07:58:56;;;;;;;3.80;2.37;;;;;;;;;;4918975;29;20214;-82
2022/01/18 08:01:22;;;;;;;4.10;2.30;;;;;;;;;;4918312;29;20704;-79
2022/01/18 08:03:48;;;;;;;4.63;1.90;;;;;;;;;;4908623;29;20209;-82
2022/01/18 08:06:14;;;;;;;3.23;2.00;;;;;;;;;;4883998;29;20334;-81
2022/01/18 08:08:40;;;;;;;2.43;1.50;;;;;;;;;;4884560;29;20645;-81
2022/01/18 08:11:06;;;;;;;5.00;1.80;;;;;;;;;;4884743;29;20196;-78
2022/01/18 08:13:39;;;;;;;3.67;1.80;;;;;;;;;;4883539;29;20293;-79
2022/01/18 08:18:51;;;;;;;5.87;2.30;;;;;;;;;;4916435;29;20310;-79
2022/01/18 08:21:17;;;;;;;5.63;2.23;;;;;;;;;;4884107;29;20192;-79
2022/01/18 08:23:43;;;;;;;5.40;2.40;;;;;;;;;;4883571;29;20808;-79
2022/01/18 08:26:09;;;;;;;5.23;2.90;;;;;;;;;;4883569;29;20654;-81
2022/01/18 08:28:35;;;;;;;5.37;2.90;;;;;;;;;;4883379;29;20230;-78
2022/01/18 08:31:03;;;;;;;6.60;3.27;;;;;;;;;;4884074;29;20182;-78
2022/01/18 08:33:31;;;;;;;6.77;3.67;;;;;;;;;;4913315;29;20220;-79
2022/01/18 08:35:59;;;;;;;4.77;2.90;;;;;;;;;;4883330;29;20191;-78
2022/01/18 08:38:25;;;;;;;5.97;3.00;;;;;;;;;;4914162;29;20238;-78
2022/01/18 08:40:51;;;;;;;5.03;3.00;;;;;;;;;;4883181;29;20189;-79
2022/01/18 08:43:17;;;;;;;8.27;3.33;;;;;;;;;;4913933;29;20198;-78
2022/01/18 08:45:43;;;;;;;5.17;3.80;;;;;;;;;;4916705;29;20179;-78
2022/01/18 08:48:09;;;;;;;7.90;3.60;;;;;;;;;;4886357;29;20196;-78
2022/01/18 08:50:35;;;;;;;6.37;2.77;;;;;;;;;;4917511;29;20186;-78
2022/01/18 08:53:01;;;;;;;3.47;2.73;;;;;;;;;;4886243;29;20245;-78
2022/01/18 08:55:27;;;;;;;4.80;2.40;;;;;;;;;;4886040;29;20237;-78
2022/01/18 08:57:53;;;;;;;5.17;2.30;;;;;;;;;;4917359;29;20210;-79
2022/01/18 09:00:19;;;;;;;4.17;2.37;;;;;;;;;;4886476;29;20213;-78
2022/01/18 09:02:45;;;;;;;4.73;2.70;;;;;;;;;;4917701;29;20202;-78
2022/01/18 09:05:11;;;;;;;5.10;2.67;;;;;;;;;;4917019;29;20182;-79
2022/01/18 09:07:39;;;;;;;4.90;3.03;;;;;;;;;;4886050;29;20194;-78
2022/01/18 09:10:07;;;;;;;5.47;2.50;;;;;;;;;;4885993;29;20190;-78
2022/01/18 09:12:34;;;;;;;4.90;2.47;;;;;;;;;;4917220;29;20213;-78
2022/01/18 09:15:01;;;;;;;4.90;2.40;;;;;;;;;;4916894;29;20266;-78
2022/01/18 09:17:30;;;;;;;4.80;2.30;;;;;;;;;;4885765;29;20222;-79
2022/01/18 09:19:56;;;;;;;4.87;2.40;;;;;;;;;;4916748;29;20185;-79
2022/01/18 09:22:23;;;;;;;7.13;4.77;;;;;;;;;;4917065;29;20273;-78
2022/01/18 09:24:49;;;;;;;7.13;3.80;;;;;;;;;;4916773;29;20185;-78
2022/01/18 09:27:15;;;;;;;6.03;3.20;;;;;;;;;;4885510;29;20186;-78
2022/01/18 09:29:41;;;;;;;48.53;35.80;;;;;;;;;;4885662;29;20703;-79
2022/01/18 09:32:08;;;;;;;12.37;7.80;;;;;;;;;;4885513;29;20210;-78
2022/01/18 09:34:34;;;;;;;7.13;3.90;;;;;;;;;;4916909;29;20191;-79
2022/01/18 09:37:00;;;;;;;5.60;2.63;;;;;;;;;;4916972;29;20210;-79
2022/01/18 09:39:27;;;;;;;11.07;6.63;;;;;;;;;;4885565;29;20187;-79
2022/01/18 09:41:54;;;;;;;7.23;3.33;;;;;;;;;;4916735;29;20202;-78
2022/01/18 09:44:21;;;;;;;3.87;2.40;;;;;;;;;;4916414;29;20175;-76
2022/01/18 09:46:51;;;;;;;6.07;2.70;;;;;;;;;;4916905;29;20320;-79
2022/01/18 09:49:18;;;;;;;6.33;2.57;;;;;;;;;;4916650;29;20530;-78
2022/01/18 09:51:44;;;;;;;4.00;2.40;;;;;;;;;;4916598;29;20182;-78
2022/01/18 09:54:10;;;;;;;3.50;2.17;;;;;;;;;;4884929;29;20195;-78
2022/01/18 09:56:36;;;;;;;4.17;2.27;;;;;;;;;;4884488;29;20752;-81
2022/01/18 09:59:02;;;;;;;2.77;2.23;;;;;;;;;;4916444;29;20185;-79
2022/01/18 10:01:29;;;;;;;3.10;2.30;;;;;;;;;;4885087;29;20190;-79
2022/01/18 10:04:17;;;;;;;3.27;1.67;;;;;;;;;;4885279;29;20560;-79
2022/01/18 10:06:44;;;;;;;2.83;1.90;;;;;;;;;;4900639;29;20190;-79
2022/01/18 10:09:11;;;;;;;3.57;2.40;;;;;;;;;;4916291;29;20225;-79
2022/01/18 10:11:37;;;;;;;4.23;2.80;;;;;;;;;;4916006;29;20592;-78
2022/01/18 10:14:03;;;;;;;4.10;2.77;;;;;;;;;;4915553;29;20202;-79
2022/01/18 10:16:29;;;;;;;4.77;2.43;;;;;;;;;;4884888;29;20214;-79
2022/01/18 10:19:02;;;;;;;5.23;2.87;;;;;;;;;;4884525;29;20229;-78
2022/01/18 10:21:32;;;;;;;5.13;3.70;;;;;;;;;;4915825;29;20189;-83
2022/01/18 10:24:20;;;;;;;5.40;3.63;;;;;;;;;;4915606;29;20190;-77
2022/01/18 10:26:47;;;;;;;8.53;4.50;;;;;;;;;;4915698;29;20182;-75
2022/01/18 10:29:14;;;;;;;7.73;4.00;;;;;;;;;;4915638;29;20224;-78
2022/01/18 10:36:53;;;;;;;3.37;2.40;;;;;;;;;;4901833;29;20234;-78
2022/01/18 10:39:22;;;;;;;2.97;2.40;;;;;;;;;;4916137;29;20186;-78
2022/01/18 10:41:49;;;;;;;4.50;2.80;;;;;;;;;;4884561;29;20186;-78
2022/01/18 10:44:16;;;;;;;3.27;2.73;;;;;;;;;;4915400;29;20272;-79
2022/01/18 10:46:44;;;;;;;4.90;3.40;;;;;;;;;;4884509;29;20215;-78
2022/01/18 10:49:10;;;;;;;4.20;3.33;;;;;;;;;;4915283;29;20178;-80
2022/01/18 10:51:38;;;;;;;3.23;2.70;;;;;;;;;;4915248;29;20233;-77
2022/01/18 10:54:09;;;;;;;3.20;2.30;;;;;;;;;;4884506;29;20222;-78
2022/01/18 10:56:45;;;;;;;4.00;2.57;;;;;;;;;;4917036;29;20210;-80
2022/01/18 10:59:20;;;;;;;3.43;2.63;;;;;;;;;;4916443;29;20177;-80
2022/01/18 11:01:46;;;;;;;6.30;3.00;;;;;;;;;;4916479;29;20269;-81
2022/01/18 11:04:14;;;;;;;3.93;2.77;;;;;;;;;;4884716;29;20273;-80
2022/01/18 11:06:42;;;;;;;2.83;2.33;;;;;;;;;;4883117;29;20195;-82
2022/01/18 11:09:09;;;;;;;4.07;2.30;;;;;;;;;;4915302;29;20218;-83
2022/01/18 11:11:46;;;;;;;3.60;2.10;;;;;;;;;;4883947;29;20196;-83
2022/01/18 11:14:13;;;;;;;2.50;1.50;;;;;;;;;;4914716;29;20191;-82
2022/01/18 11:16:43;;;;;;;2.20;1.77;;;;;;;;;;4884117;29;20286;-82
2022/01/18 11:19:28;;;;;;;4.67;1.70;;;;;;;;;;4884043;29;20722;-82
2022/01/18 11:22:01;;;;;;;3.10;1.67;;;;;;;;;;4886391;29;20564;-81
2022/01/18 11:24:28;;;;;;;1.97;1.70;;;;;;;;;;4914791;29;20183;-82
2022/01/18 11:26:55;;;;;;;2.43;1.63;;;;;;;;;;4914978;29;20192;-81
2022/01/18 11:29:21;;;;;;;3.00;1.80;;;;;;;;;;4915145;29;20182;-81
2022/01/18 11:31:47;;;;;;;1.87;1.70;;;;;;;;;;4915065;29;20281;-82
2022/01/18 11:34:17;;;;;;;2.47;1.70;;;;;;;;;;4883542;29;20212;-82
2022/01/18 11:36:47;;;;;;;1.63;1.50;;;;;;;;;;4914761;29;20660;-82
2022/01/18 11:39:13;;;;;;;3.80;1.77;;;;;;;;;;4914712;29;20175;-82
2022/01/18 11:41:39;;;;;;;4.60;2.23;;;;;;;;;;4914864;29;20192;-81
2022/01/18 11:44:13;;;;;;;6.07;2.40;;;;;;;;;;4914737;29;20609;-82
2022/01/18 11:46:45;;;;;;;3.20;2.00;;;;;;;;;;4914714;29;20650;-82
2022/01/18 11:49:16;;;;;;;2.73;2.00;;;;;;;;;;4914838;29;20602;-82
2022/01/18 11:51:44;;;;;;;3.23;2.40;;;;;;;;;;4914534;29;20182;-83
2022/01/18 11:54:20;;;;;;;3.20;2.23;;;;;;;;;;4950102;23;20584;-78
2022/01/18 11:56:46;;;;;;;2.90;2.27;;;;;;;;;;4911404;29;20213;-77
2022/01/18 11:59:20;;;;;;;3.00;2.17;;;;;;;;;;4911811;29;20187;-76
2022/01/18 12:01:51;;;;;;;4.40;2.30;;;;;;;;;;4911498;29;20171;-76
2022/01/18 12:04:36;;;;;;;2.60;2.20;;;;;;;;;;4896625;29;20278;-77
2022/01/18 12:07:03;;;;;;;3.83;2.60;;;;;;;;;;4897094;29;20235;-77
2022/01/18 12:09:42;;;;;;;5.67;2.57;;;;;;;;;;4895961;29;20263;-77
2022/01/18 12:12:27;;;;;;;3.87;2.43;;;;;;;;;;4880284;29;20187;-77
2022/01/18 12:14:53;;;;;;;4.53;2.60;;;;;;;;;;4896318;29;20187;-78
2022/01/18 12:17:19;;;;;;;4.20;2.00;;;;;;;;;;4880215;29;20227;-77
2022/01/18 12:19:46;;;;;;;2.80;1.90;;;;;;;;;;4883181;29;20704;-77
2022/01/18 12:22:12;;;;;;;2.60;1.90;;;;;;;;;;4899506;29;20173;-77
2022/01/18 12:24:43;;;;;;;2.00;1.40;;;;;;;;;;4883647;29;20553;-76
2022/01/18 12:27:29;;;;;;;1.80;1.40;;;;;;;;;;4884544;29;20273;-78
2022/01/18 12:30:26;;;;;;;2.43;1.50;;;;;;;;;;4900292;29;20187;-77
2022/01/18 12:33:11;;;;;;;2.20;1.40;;;;;;;;;;4885484;29;20719;-77
2022/01/18 12:35:37;;;;;;;2.47;1.90;;;;;;;;;;4899395;29;20184;-76
2022/01/18 12:38:10;;;;;;;4.47;2.73;;;;;;;;;;4883940;29;20712;-78
2022/01/18 12:40:42;;;;;;;1.80;1.37;;;;;;;;;;4885231;29;20669;-77
2022/01/18 12:46:16;;;;;;;1.40;1.20;;;;;;;;;;4900673;29;20174;-78
2022/01/18 12:48:43;;;;;;;1.50;1.20;;;;;;;;;;4883752;29;20185;-77
2022/01/18 12:51:12;;;;;;;1.50;1.37;;;;;;;;;;4883894;29;20261;-77
2022/01/18 12:54:05;;;;;;;2.50;1.63;;;;;;;;;;4884104;29;20654;-78
2022/01/18 12:56:31;;;;;;;1.63;1.53;;;;;;;;;;4880731;29;20320;-77
2022/01/18 12:59:01;;;;;;;3.20;2.60;;;;;;;;;;4880596;29;20197;-74
2022/01/18 13:01:29;;;;;;;3.40;2.40;;;;;;;;;;4895765;29;20254;-74
2022/01/18 13:03:56;;;;;;;2.50;2.07;;;;;;;;;;4880475;29;20209;-73
2022/01/18 13:06:24;;;;;;;2.23;1.80;;;;;;;;;;4895947;29;20562;-74
2022/01/18 13:08:52;;;;;;;4.17;1.60;;;;;;;;;;4880164;29;20195;-74
2022/01/18 13:11:22;;;;;;;2.47;1.50;;;;;;;;;;4878296;29;20551;-74
2022/01/18 13:13:57;;;;;;;2.67;1.37;;;;;;;;;;4892886;29;20239;-74
2022/01/18 13:26:59;;;;;;;3.77;2.50;;;;;;;;;;4880599;29;20540;-77
2022/01/18 13:29:27;;;;;;;1.70;1.43;;;;;;;;;;4879735;29;20280;-79
2022/01/18 13:32:09;;;;;;;3.30;1.53;;;;;;;;;;4894207;29;20215;-78
2022/01/18 13:34:36;;;;;;;10.07;5.50;;;;;;;;;;4894615;29;20696;-78
2022/01/18 13:37:04;;;;;;;5.70;3.43;;;;;;;;;;4879257;29;20306;-77
2022/01/18 13:39:40;;;;;;;7.90;4.57;;;;;;;;;;4879204;29;20608;-77
2022/01/18 13:42:06;;;;;;;17.27;10.23;;;;;;;;;;4879171;29;20185;-78
2022/01/18 13:44:33;;;;;;;8.47;5.33;;;;;;;;;;4878786;29;20181;-77
2022/01/18 13:47:12;;;;;;;5.67;4.47;;;;;;;;;;4894587;29;20277;-77
2022/01/18 13:49:38;;;;;;;4.83;2.90;;;;;;;;;;4894460;29;20215;-78
2022/01/18 13:52:06;;;;;;;2.80;1.90;;;;;;;;;;4894526;29;20185;-78
2022/01/18 13:54:52;;;;;;;9.20;5.20;;;;;;;;;;4893984;29;20195;-77
2022/01/18 13:57:19;;;;;;;4.93;3.20;;;;;;;;;;4879816;29;20218;-78
2022/01/18 13:59:46;;;;;;;5.70;3.50;;;;;;;;;;4894391;29;20176;-77
2022/01/18 14:02:17;;;;;;;3.23;2.20;;;;;;;;;;4878674;29;20188;-78
2022/01/18 14:04:44;;;;;;;4.07;2.67;;;;;;;;;;4878627;29;20184;-78
2022/01/18 14:07:10;;;;;;;2.10;1.67;;;;;;;;;;4894317;29;20184;-79
2022/01/18 14:09:36;;;;;;;3.27;2.97;;;;;;;;;;4878713;29;20666;-77
2022/01/18 14:12:03;;;;;;;3.13;2.10;;;;;;;;;;4894341;29;20184;-79
2022/01/18 14:14:30;;;;;;;4.03;3.63;;;;;;;;;;4878603;29;20199;-78
2022/01/18 14:16:56;;;;;;;2.33;2.13;;;;;;;;;;4894115;29;20265;-77
2022/01/18 14:19:25;;;;;;;3.20;2.00;;;;;;;;;;4894061;29;20191;-77
2022/01/18 14:21:51;;;;;;;3.10;1.70;;;;;;;;;;4893946;29;20193;-77
2022/01/18 14:24:18;;;;;;;3.37;1.97;;;;;;;;;;4878154;29;20202;-77
2022/01/18 14:26:54;;;;;;;2.50;1.90;;;;;;;;;;4893916;29;20783;-78
2022/01/18 14:29:21;;;;;;;3.63;1.70;;;;;;;;;;4893789;29;20693;-78
2022/01/18 14:31:57;;;;;;;3.00;1.90;;;;;;;;;;4878414;29;20286;-77
2022/01/18 14:34:39;;;;;;;2.50;1.80;;;;;;;;;;4893357;29;20202;-78
2022/01/18 14:37:05;;;;;;;1.90;1.50;;;;;;;;;;4893727;29;20742;-78
2022/01/18 14:39:31;;;;;;;2.33;1.73;;;;;;;;;;4878125;29;20211;-78
2022/01/18 14:42:05;;;;;;;3.63;1.67;;;;;;;;;;4878402;29;20235;-77
2022/01/18 14:44:59;;;;;;;2.43;1.60;;;;;;;;;;4879014;29;20266;-79
2022/01/18 14:47:25;;;;;;;2.33;1.80;;;;;;;;;;4893491;29;20190;-78
2022/01/18 14:49:56;;;;;;;2.20;1.57;;;;;;;;;;4893517;29;20212;-77
2022/01/18 14:52:22;;;;;;;2.67;1.77;;;;;;;;;;4893210;29;20181;-78
2022/01/18 14:54:48;;;;;;;1.80;1.60;;;;;;;;;;4893256;29;20658;-77
2022/01/18 14:57:14;;;;;;;3.40;1.90;;;;;;;;;;4893281;29;20278;-78
2022/01/18 14:59:41;;;;;;;2.03;1.70;;;;;;;;;;4893292;29;20290;-77
2022/01/18 15:02:07;;;;;;;2.13;1.93;;;;;;;;;;4893256;29;20234;-77
2022/01/18 15:04:33;;;;;;;3.03;2.10;;;;;;;;;;4893005;29;20659;-77
2022/01/18 15:06:59;;;;;;;1.50;1.40;;;;;;;;;;4877818;29;20220;-77
2022/01/18 15:09:28;;;;;;;2.13;1.50;;;;;;;;;;4877851;29;20198;-77
2022/01/18 15:11:54;;;;;;;3.40;1.57;;;;;;;;;;4877806;29;20191;-78
2022/01/18 15:14:21;;;;;;;1.83;1.60;;;;;;;;;;4893111;29;20209;-77
2022/01/18 15:16:46;;;;;;;1.70;1.50;;;;;;;;;;4893445;29;20262;-77
2022/01/18 15:19:13;;;;;;;2.87;1.80;;;;;;;;;;4877672;29;20195;-77
2022/01/18 15:21:38;;;;;;;2.57;1.50;;;;;;;;;;4877367;29;20538;-77
2022/01/18 15:24:05;;;;;;;1.80;1.50;;;;;;;;;;4877424;29;20354;-78
2022/01/18 15:26:31;;;;;;;1.73;1.47;;;;;;;;;;4877541;29;20289;-77
2022/01/18 15:28:57;;;;;;;2.37;1.63;;;;;;;;;;4893125;29;20189;-77
2022/01/18 15:31:23;;;;;;;2.30;1.43;;;;;;;;;;4877721;29;20194;-78
2022/01/18 15:33:49;;;;;;;1.97;1.63;;;;;;;;;;4892860;29;20202;-77
2022/01/18 15:36:15;;;;;;;1.90;1.37;;;;;;;;;;4892991;29;20190;-78
2022/01/18 15:38:41;;;;;;;2.10;1.53;;;;;;;;;;4893049;29;20179;-78
2022/01/18 15:41:07;;;;;;;2.33;1.90;;;;;;;;;;4892849;29;20277;-78
2022/01/18 15:43:33;;;;;;;2.13;1.60;;;;;;;;;;4893103;29;20466;-77
2022/01/18 15:46:02;;;;;;;4.20;2.17;;;;;;;;;;4877481;29;20186;-77
2022/01/18 15:48:28;;;;;;;3.00;2.70;;;;;;;;;;4877910;29;20205;-78
2022/01/18 15:50:54;;;;;;;5.43;3.30;;;;;;;;;;4877207;29;20192;-78
2022/01/18 15:53:20;;;;;;;7.67;5.30;;;;;;;;;;4878768;29;20220;-77
2022/01/18 15:55:46;;;;;;;17.17;11.53;;;;;;;;;;4880863;29;20195;-78
2022/01/18 15:58:12;;;;;;;7.07;4.93;;;;;;;;;;4880958;29;20218;-78
2022/01/18 16:00:42;;;;;;;6.77;4.30;;;;;;;;;;4880872;29;20190;-78
2022/01/18 16:03:08;;;;;;;8.20;4.87;;;;;;;;;;4881547;29;20304;-79
2022/01/18 16:05:34;;;;;;;7.13;4.70;;;;;;;;;;4896383;29;20273;-78
2022/01/18 16:08:00;;;;;;;5.70;4.60;;;;;;;;;;4880960;29;20195;-78
2022/01/18 16:10:26;;;;;;;8.00;5.07;;;;;;;;;;4880578;29;20195;-75
2022/01/18 16:12:54;;;;;;;7.43;5.50;;;;;;;;;;4896396;29;20198;-75
2022/01/18 16:15:20;;;;;;;8.00;5.50;;;;;;;;;;4896050;29;20200;-75
2022/01/18 16:17:46;;;;;;;8.43;5.87;;;;;;;;;;4896111;29;20214;-75
2022/01/18 16:20:12;;;;;;;8.77;5.57;;;;;;;;;;4880520;29;20179;-75
2022/01/18 16:22:38;;;;;;;14.27;10.20;;;;;;;;;;4895913;29;20244;-76